Time;durP1;ratioP1;P1;durP2;ratioP2;P2;SDS_P1;SDS_P2;PMS_P1;PMS_P2;Temp;Humidity;BMP_temperature;BMP_pressure;BME280_temperature;BME280_humidity;BME280_pressure;Samples;Min_cycle;Max_cycle;Signal;HPM_P1;HPM_P2
2023/01/26 00:04:34;;;;;;;12.70;10.70;;;22.70;64.60;;;;;;222275;1264;22535;-51
2023/01/26 00:09:38;;;;;;;15.20;10.50;;;22.60;64.90;;;;;;222207;1256;22528;-50
2023/01/26 00:14:48;;;;;;;13.70;11.10;;;22.60;64.80;;;;;;222316;1259;23880;-51
2023/01/26 00:19:54;;;;;;;15.00;10.50;;;22.50;64.80;;;;;;222201;1266;23123;-48
2023/01/26 00:24:58;;;;;;;17.40;11.10;;;22.50;64.80;;;;;;222295;1253;24243;-50
2023/01/26 00:30:03;;;;;;;12.80;10.80;;;22.40;64.90;;;;;;222107;1269;25290;-50
2023/01/26 00:35:08;;;;;;;11.50;9.90;;;22.30;64.80;;;;;;221729;1270;22527;-49
2023/01/26 00:40:12;;;;;;;12.80;10.60;;;22.30;65.10;;;;;;221913;1267;22537;-51
2023/01/26 00:45:16;;;;;;;12.90;10.60;;;22.20;65.00;;;;;;222203;1264;25259;-47
2023/01/26 00:50:20;;;;;;;16.00;10.60;;;22.10;64.70;;;;;;221922;1270;22521;-50
2023/01/26 00:55:31;;;;;;;17.00;11.30;;;22.10;64.80;;;;;;221974;1253;24211;-50
2023/01/26 01:00:37;;;;;;;12.80;11.50;;;22.00;65.00;;;;;;222183;1266;24351;-51
2023/01/26 01:05:41;;;;;;;14.10;11.00;;;22.00;64.50;;;;;;222173;1264;22531;-49
2023/01/26 01:10:48;;;;;;;11.80;10.60;;;21.90;64.20;;;;;;222241;1267;24388;-51
2023/01/26 01:15:52;;;;;;;12.40;10.70;;;21.90;63.90;;;;;;222265;1266;27804;-51
2023/01/26 01:20:56;;;;;;;12.80;10.70;;;21.90;64.10;;;;;;222187;1246;23459;-51
2023/01/26 01:26:01;;;;;;;11.70;10.50;;;21.80;64.00;;;;;;222298;1257;22542;-51
2023/01/26 01:31:08;;;;;;;20.00;12.40;;;21.80;64.20;;;;;;222345;1269;22649;-52
2023/01/26 01:36:14;;;;;;;11.30;10.20;;;21.70;64.30;;;;;;222323;1267;24350;-50
2023/01/26 01:41:21;;;;;;;12.60;10.20;;;21.70;63.70;;;;;;222123;1261;26516;-51
2023/01/26 01:46:34;;;;;;;13.80;11.10;;;21.70;63.70;;;;;;222270;1257;24219;-51
2023/01/26 01:51:47;;;;;;;10.80;9.80;;;21.70;63.80;;;;;;221959;1267;25719;-49
2023/01/26 01:56:53;;;;;;;11.90;10.70;;;21.60;63.60;;;;;;222277;1269;25342;-50
2023/01/26 02:01:58;;;;;;;11.00;9.90;;;21.50;63.60;;;;;;222001;1257;25246;-47
2023/01/26 02:07:04;;;;;;;12.10;10.00;;;21.70;63.50;;;;;;222117;1257;24329;-51
2023/01/26 02:12:11;;;;;;;10.00;9.10;;;22.10;62.20;;;;;;221838;1257;233596;-51
2023/01/26 02:17:15;;;;;;;11.10;9.90;;;22.40;61.80;;;;;;222167;1270;24250;-49
2023/01/26 02:22:54;;;;;;;11.20;9.70;;;22.60;60.90;;;;;;222285;1269;24325;-51
2023/01/26 02:27:59;;;;;;;13.50;9.70;;;22.80;60.50;;;;;;222273;1267;25491;-50
2023/01/26 02:33:03;;;;;;;10.30;9.30;;;22.90;60.10;;;;;;221982;1269;22578;-50
2023/01/26 02:38:08;;;;;;;11.60;10.30;;;23.00;59.80;;;;;;221702;1264;24238;-51
2023/01/26 02:43:13;;;;;;;11.30;10.20;;;23.10;59.50;;;;;;221680;1270;24217;-48
2023/01/26 02:53:39;;;;;;;9.70;8.90;;;23.10;59.20;;;;;;221925;1270;22596;-52
2023/01/26 02:58:44;;;;;;;10.50;9.50;;;23.20;59.10;;;;;;222197;1247;24206;-54
2023/01/26 03:03:48;;;;;;;10.90;9.90;;;23.20;59.10;;;;;;222139;1267;24206;-49
2023/01/26 03:08:55;;;;;;;10.70;9.70;;;23.20;59.10;;;;;;222266;1264;22666;-52
2023/01/26 03:13:59;;;;;;;10.90;9.90;;;23.20;59.00;;;;;;222064;1247;22751;-52
2023/01/26 03:29:57;;;;;;;10.00;9.00;;;23.40;58.30;;;;;;222307;1257;25246;-51
2023/01/26 03:35:02;;;;;;;9.90;9.00;;;23.40;58.20;;;;;;222339;1263;22597;-51
2023/01/26 03:56:18;;;;;;;10.90;9.80;;;23.60;57.60;;;;;;222195;1254;22541;-52
2023/01/26 04:01:31;;;;;;;11.30;10.20;;;23.40;58.00;;;;;;222328;1253;24213;-51
2023/01/26 04:12:01;;;;;;;11.40;10.30;;;23.30;57.90;;;;;;222289;1269;25689;-51
2023/01/26 04:22:30;;;;;;;11.20;10.00;;;23.30;57.40;;;;;;222136;1267;22619;-49
2023/01/26 04:27:34;;;;;;;12.10;10.50;;;23.10;57.30;;;;;;221950;1261;25379;-48
2023/01/26 04:32:39;;;;;;;12.10;10.90;;;22.90;58.20;;;;;;222141;1259;25448;-50
2023/01/26 04:37:44;;;;;;;12.30;11.00;;;22.80;58.40;;;;;;222217;1266;22545;-51
2023/01/26 04:42:49;;;;;;;11.60;10.40;;;22.70;58.80;;;;;;221981;1267;25531;-53
2023/01/26 04:47:53;;;;;;;11.10;10.00;;;22.60;58.40;;;;;;222313;1255;22528;-49
2023/01/26 04:52:57;;;;;;;12.00;10.80;;;22.50;58.10;;;;;;222184;1263;23210;-50
2023/01/26 04:58:01;;;;;;;10.90;9.90;;;22.50;59.10;;;;;;222134;1247;23977;-53
2023/01/26 05:03:07;;;;;;;11.90;10.80;;;22.40;58.80;;;;;;222175;1264;24365;-50
2023/01/26 05:08:13;;;;;;;11.80;10.60;;;22.30;58.80;;;;;;222265;1257;24206;-50
2023/01/26 05:13:18;;;;;;;12.40;11.20;;;22.30;58.90;;;;;;222182;1263;22540;-51
2023/01/26 05:18:41;;;;;;;12.50;11.20;;;22.20;58.90;;;;;;222164;1255;22654;-51
2023/01/26 05:24:04;;;;;;;12.70;11.50;;;22.20;59.00;;;;;;222046;1263;22655;-51
2023/01/26 05:29:31;;;;;;;12.10;10.70;;;22.10;58.90;;;;;;222065;1259;22568;-52
2023/01/26 05:34:37;;;;;;;12.80;11.20;;;22.10;58.80;;;;;;222161;1266;22561;-52
2023/01/26 05:39:41;;;;;;;13.10;11.90;;;22.00;59.10;;;;;;222101;1258;22885;-53
2023/01/26 05:44:45;;;;;;;13.10;11.70;;;22.00;59.30;;;;;;222194;1257;26519;-51
2023/01/26 05:49:51;;;;;;;12.80;11.60;;;21.90;58.90;;;;;;222286;1263;25321;-47
2023/01/26 05:55:04;;;;;;;12.40;11.20;;;21.90;59.20;;;;;;222013;1256;22657;-52
2023/01/26 06:00:11;;;;;;;13.80;12.50;;;21.80;58.80;;;;;;222110;1267;24215;-50
2023/01/26 06:05:23;;;;;;;12.90;11.70;;;21.80;59.10;;;;;;222005;1266;22734;-49
2023/01/26 06:10:28;;;;;;;12.70;11.40;;;22.00;58.70;;;;;;222333;1269;22987;-50
2023/01/26 06:15:50;;;;;;;12.60;10.70;;;22.40;58.10;;;;;;222053;1256;22523;-53
2023/01/26 06:21:00;;;;;;;11.90;10.80;;;22.60;57.40;;;;;;222010;1266;22653;-50
2023/01/26 06:26:06;;;;;;;12.00;10.80;;;22.90;56.80;;;;;;221988;1259;25374;-51
2023/01/26 06:31:14;;;;;;;11.60;10.40;;;23.00;56.50;;;;;;221964;1267;24336;-53
2023/01/26 06:36:18;;;;;;;11.40;10.30;;;23.10;56.20;;;;;;222338;1266;22550;-51
2023/01/26 06:41:24;;;;;;;13.80;11.70;;;23.10;56.00;;;;;;222079;1267;22554;-52
2023/01/26 06:46:28;;;;;;;12.20;10.70;;;23.10;56.20;;;;;;222100;1252;24989;-52
2023/01/26 06:51:52;;;;;;;11.90;10.70;;;23.20;56.00;;;;;;221820;1263;22629;-49
2023/01/26 06:57:00;;;;;;;12.50;11.30;;;23.20;55.80;;;;;;222123;1269;25398;-52
2023/01/26 07:02:24;;;;;;;11.80;10.60;;;23.30;55.70;;;;;;221756;1246;22593;-49
2023/01/26 07:07:29;;;;;;;12.70;11.50;;;23.10;56.40;;;;;;221955;1259;22903;-52
2023/01/26 07:12:41;;;;;;;13.60;11.90;;;23.10;56.40;;;;;;221933;1264;22908;-51
2023/01/26 07:17:45;;;;;;;13.10;11.80;;;23.20;56.10;;;;;;222041;1263;26499;-51
2023/01/26 07:22:51;;;;;;;15.40;12.70;;;23.30;55.30;;;;;;222097;1256;25297;-52
2023/01/26 07:27:58;;;;;;;27.00;13.20;;;23.40;55.20;;;;;;222206;1256;24181;-53
2023/01/26 07:33:03;;;;;;;23.00;12.10;;;23.50;54.90;;;;;;221987;1263;23398;-54
2023/01/26 07:38:07;;;;;;;18.10;11.70;;;23.60;55.00;;;;;;221962;1257;22771;-53
2023/01/26 07:43:13;;;;;;;17.40;12.30;;;23.60;54.70;;;;;;222166;1263;25432;-53
2023/01/26 07:48:24;;;;;;;14.20;12.80;;;23.70;54.80;;;;;;222045;1246;25437;-53
2023/01/26 07:53:29;;;;;;;15.80;11.90;;;23.70;54.60;;;;;;222181;1267;22529;-50
2023/01/26 07:58:34;;;;;;;17.30;12.70;;;23.70;54.60;;;;;;222096;1256;23871;-48
2023/01/26 08:03:40;;;;;;;18.90;12.20;;;23.70;55.10;;;;;;221965;1249;22591;-48
2023/01/26 08:08:45;;;;;;;21.50;12.40;;;23.60;55.50;;;;;;222210;1263;25382;-46
2023/01/26 08:13:49;;;;;;;18.20;12.60;;;23.40;56.10;;;;;;222146;1263;22525;-48
2023/01/26 08:18:53;;;;;;;28.30;13.40;;;23.30;56.10;;;;;;221956;1269;25332;-46
2023/01/26 08:24:00;;;;;;;22.20;12.50;;;23.30;56.50;;;;;;222084;1263;25379;-47
2023/01/26 08:29:04;;;;;;;21.10;13.10;;;23.20;56.30;;;;;;230046;1266;22236;-46
2023/01/26 08:34:08;;;;;;;14.20;12.70;;;23.10;56.10;;;;;;229996;1263;22458;-47
2023/01/26 08:39:12;;;;;;;18.60;13.30;;;23.10;55.70;;;;;;222838;1263;22550;-47
2023/01/26 08:44:16;;;;;;;16.00;12.20;;;23.10;56.10;;;;;;222168;1263;22583;-49
2023/01/26 08:49:20;;;;;;;29.30;14.80;;;22.90;56.30;;;;;;222074;1263;24150;-49
2023/01/26 08:54:24;;;;;;;16.00;12.50;;;22.70;56.80;;;;;;222188;1266;24138;-47
2023/01/26 08:59:28;;;;;;;17.30;13.00;;;22.70;56.60;;;;;;222119;1263;22826;-44
2023/01/26 09:04:32;;;;;;;15.20;12.80;;;22.60;56.40;;;;;;222122;1263;22530;-46
2023/01/26 09:09:37;;;;;;;17.10;13.30;;;22.50;56.90;;;;;;221989;1257;23116;-48
2023/01/26 09:14:41;;;;;;;17.00;12.60;;;22.50;56.60;;;;;;222025;1267;22752;-45
2023/01/26 09:19:45;;;;;;;19.30;12.80;;;22.40;56.00;;;;;;222047;1263;25249;-45
2023/01/26 09:24:49;;;;;;;13.60;12.30;;;22.30;56.60;;;;;;222011;1263;23482;-45
2023/01/26 09:29:54;;;;;;;15.90;12.80;;;22.30;56.60;;;;;;221990;1254;25459;-45
2023/01/26 09:34:58;;;;;;;15.10;13.10;;;22.10;56.80;;;;;;221880;1263;23750;-46
2023/01/26 09:40:03;;;;;;;16.50;13.90;;;22.10;57.10;;;;;;222047;1263;22544;-49
2023/01/26 09:45:13;;;;;;;14.90;13.30;;;22.00;57.20;;;;;;222182;1246;22528;-46
2023/01/26 09:50:26;;;;;;;15.10;13.50;;;21.90;56.80;;;;;;222085;1266;22554;-49
2023/01/26 09:55:30;;;;;;;16.60;13.10;;;21.80;56.30;;;;;;222151;1263;22546;-47
2023/01/26 10:00:48;;;;;;;18.50;13.30;;;21.80;57.20;;;;;;222230;1270;22642;-51
2023/01/26 10:06:20;;;;;;;16.00;13.20;;;21.80;56.80;;;;;;222147;1267;22524;-49
2023/01/26 10:11:54;;;;;;;15.00;13.50;;;22.20;56.20;;;;;;221983;1267;22993;-49
2023/01/26 10:17:00;;;;;;;15.00;13.50;;;22.50;54.70;;;;;;222128;1265;24228;-50
2023/01/26 10:22:18;;;;;;;15.00;13.10;;;22.70;54.00;;;;;;222073;1266;23123;-48
2023/01/26 10:27:22;;;;;;;16.10;13.10;;;22.90;53.70;;;;;;222053;1263;22536;-57
2023/01/26 10:32:26;;;;;;;16.00;13.60;;;23.00;53.40;;;;;;222218;1269;22667;-58
2023/01/26 10:37:33;;;;;;;14.80;13.00;;;23.00;53.30;;;;;;222137;1263;22683;-58
2023/01/26 10:42:38;;;;;;;14.90;12.80;;;23.10;53.20;;;;;;222096;1247;24034;-58
2023/01/26 10:48:00;;;;;;;13.70;12.00;;;23.00;53.70;;;;;;222213;1263;25408;-58
2023/01/26 10:53:04;;;;;;;;;;;23.00;53.90;;;;;;222148;1263;22616;-58
2023/01/26 10:58:53;;;;;;;13.50;12.20;;;23.10;53.60;;;;;;222214;1259;22537;-58
2023/01/26 11:04:00;;;;;;;14.60;13.10;;;23.30;53.20;;;;;;222160;1263;22964;-57
2023/01/26 11:09:13;;;;;;;16.90;14.10;;;23.40;52.50;;;;;;222155;1269;24353;-59
2023/01/26 11:14:18;;;;;;;16.30;12.90;;;23.50;52.90;;;;;;222141;1259;22605;-58
2023/01/26 11:20:13;;;;;;;17.20;12.90;;;23.60;52.80;;;;;;222118;1263;24220;-58
2023/01/26 11:25:29;;;;;;;18.10;12.20;;;23.60;52.90;;;;;;221887;1270;24227;-58
2023/01/26 11:30:39;;;;;;;14.70;12.60;;;23.70;52.40;;;;;;222164;1264;25584;-59
2023/01/26 11:36:12;;;;;;;16.20;12.40;;;23.90;52.30;;;;;;222199;1266;22575;-59
2023/01/26 11:41:26;;;;;;;20.30;13.30;;;23.90;52.50;;;;;;221854;1270;25288;-58
2023/01/26 11:46:35;;;;;;;13.70;12.10;;;23.90;52.00;;;;;;222134;1264;22531;-58
2023/01/26 11:52:13;;;;;;;14.40;11.40;;;24.00;52.20;;;;;;222143;1248;22591;-59
2023/01/26 11:57:25;;;;;;;17.20;12.40;;;24.00;51.60;;;;;;222090;1262;24345;-57
2023/01/26 12:02:37;;;;;;;16.70;12.70;;;24.10;51.70;;;;;;221992;1266;22538;-57
2023/01/26 12:07:56;;;;;;;13.80;11.70;;;24.10;52.10;;;;;;222150;1269;22530;-59
2023/01/26 12:13:11;;;;;;;13.50;12.00;;;24.10;52.00;;;;;;222215;1267;23040;-58
2023/01/26 12:18:26;;;;;;;16.80;12.70;;;24.10;51.60;;;;;;222216;1266;23910;-59
2023/01/26 12:24:02;;;;;;;13.40;12.10;;;23.90;51.90;;;;;;222002;1264;22552;-58
2023/01/26 12:29:25;;;;;;;15.80;11.70;;;23.70;52.20;;;;;;222172;1268;25644;-55
2023/01/26 12:34:32;;;;;;;14.50;12.50;;;23.60;52.00;;;;;;222137;1266;22516;-50
2023/01/26 12:39:44;;;;;;;16.00;11.90;;;23.40;52.10;;;;;;222014;1263;22985;-50
2023/01/26 12:44:51;;;;;;;16.00;12.50;;;23.20;52.60;;;;;;221873;1263;22524;-48
2023/01/26 12:50:04;;;;;;;18.50;12.90;;;23.10;52.80;;;;;;222272;1266;22559;-46
2023/01/26 12:55:20;;;;;;;14.80;12.40;;;23.10;53.10;;;;;;222383;1263;24939;-50
2023/01/26 13:00:29;;;;;;;14.30;12.80;;;23.10;53.20;;;;;;222232;1263;22554;-48
2023/01/26 13:05:35;;;;;;;18.50;12.50;;;23.00;53.30;;;;;;221961;1263;26679;-50
2023/01/26 13:10:48;;;;;;;20.40;14.30;;;22.90;53.00;;;;;;221990;1266;22741;-47
2023/01/26 13:16:14;;;;;;;16.70;13.60;;;22.70;53.00;;;;;;221750;1255;22708;-50
2023/01/26 13:21:38;;;;;;;18.30;14.20;;;22.60;53.20;;;;;;222071;1254;22540;-46
2023/01/26 13:26:45;;;;;;;16.40;13.30;;;22.60;52.80;;;;;;221950;1250;23116;-51
2023/01/26 13:31:49;;;;;;;18.20;14.30;;;22.60;52.80;;;;;;221930;1263;24410;-50
2023/01/26 13:37:18;;;;;;;15.80;13.90;;;22.60;53.10;;;;;;222191;1259;22547;-47
2023/01/26 13:42:26;;;;;;;17.40;14.40;;;22.50;54.00;;;;;;222234;1270;24045;-48
2023/01/26 13:47:38;;;;;;;15.00;13.20;;;22.60;53.90;;;;;;222290;1269;22673;-47
2023/01/26 13:52:42;;;;;;;16.60;14.70;;;22.40;54.30;;;;;;222237;1259;23847;-50
2023/01/26 13:57:48;;;;;;;17.40;14.50;;;22.50;53.80;;;;;;222258;1269;25468;-49
2023/01/26 14:02:52;;;;;;;18.00;13.40;;;22.50;54.00;;;;;;222222;1263;24255;-47
2023/01/26 14:07:58;;;;;;;20.50;14.00;;;22.40;54.00;;;;;;221720;1263;172907;-48
2023/01/26 14:13:03;;;;;;;19.30;13.70;;;22.30;54.70;;;;;;222114;1264;24038;-47
2023/01/26 14:18:20;;;;;;;17.40;14.20;;;22.30;54.90;;;;;;222161;1266;22573;-54
2023/01/26 14:23:31;;;;;;;15.80;13.70;;;22.20;55.10;;;;;;222150;1258;22643;-49
2023/01/26 14:35:22;;;;;;;19.20;14.70;;;22.10;53.90;;;;;;222126;1269;22647;-44
2023/01/26 14:40:29;;;;;;;18.90;15.30;;;22.00;54.50;;;;;;222205;1263;23084;-46
2023/01/26 14:45:39;;;;;;;19.70;15.50;;;21.90;54.70;;;;;;222086;1269;22530;-48
2023/01/26 14:50:45;;;;;;;16.50;14.80;;;21.90;55.20;;;;;;222050;1263;24230;-49
2023/01/26 14:55:51;;;;;;;16.90;15.00;;;21.90;54.60;;;;;;222217;1253;25659;-53
2023/01/26 15:00:57;;;;;;;17.80;14.50;;;21.90;54.60;;;;;;223160;1260;22531;-51
2023/01/26 15:06:14;;;;;;;18.10;14.70;;;22.00;54.70;;;;;;223192;1256;25487;-48
2023/01/26 15:16:53;;;;;;;20.00;14.70;;;22.50;52.60;;;;;;222104;1263;25344;-49
2023/01/26 15:21:58;;;;;;;20.10;16.50;;;22.60;52.40;;;;;;222122;1264;25470;-50
2023/01/26 15:27:06;;;;;;;37.80;20.20;;;22.70;51.80;;;;;;222159;1259;22527;-50
2023/01/26 15:32:27;;;;;;;39.30;21.00;;;22.90;51.20;;;;;;222168;1257;23116;-50
2023/01/26 15:37:34;;;;;;;39.20;21.60;;;23.00;50.80;;;;;;222209;1263;22524;-46
2023/01/26 15:42:38;;;;;;;33.60;21.00;;;23.00;50.20;;;;;;222021;1257;22539;-47
2023/01/26 15:47:42;;;;;;;30.10;20.10;;;22.90;48.00;;;;;;222237;1264;22892;-47
2023/01/26 15:52:46;;;;;;;32.50;19.90;;;22.70;48.50;;;;;;222210;1263;22547;-47
2023/01/26 15:57:50;;;;;;;30.40;20.40;;;22.90;48.60;;;;;;222404;1263;24238;-46
2023/01/26 16:02:54;;;;;;;31.30;19.20;;;23.00;48.70;;;;;;222053;1267;25357;-50
2023/01/26 16:07:58;;;;;;;32.20;19.20;;;23.20;49.30;;;;;;221852;1263;22645;-46
2023/01/26 16:13:10;;;;;;;33.30;18.60;;;23.30;49.90;;;;;;221942;1266;22578;-49
2023/01/26 16:18:15;;;;;;;38.20;18.70;;;23.30;51.00;;;;;;222124;1263;22590;-46
2023/01/26 16:23:23;;;;;;;34.80;19.40;;;23.40;52.00;;;;;;222660;1263;22544;-52
2023/01/26 16:28:27;;;;;;;38.20;18.80;;;23.40;51.00;;;;;;222146;1269;23029;-50
2023/01/26 16:33:31;;;;;;;36.30;18.80;;;23.40;51.30;;;;;;222167;1250;23939;-52
2023/01/26 16:38:36;;;;;;;35.70;18.80;;;23.40;50.40;;;;;;222110;1258;22684;-51
2023/01/26 16:43:42;;;;;;;32.80;18.40;;;23.30;50.30;;;;;;222010;1258;25444;-50
2023/01/26 16:48:46;;;;;;;31.20;17.70;;;23.30;50.40;;;;;;221835;1269;25448;-49
2023/01/26 16:53:52;;;;;;;43.50;19.00;;;23.20;50.30;;;;;;222075;1264;22543;-48
2023/01/26 16:58:56;;;;;;;32.10;18.10;;;23.20;50.60;;;;;;221661;1257;22530;-47
2023/01/26 17:04:01;;;;;;;31.90;18.50;;;23.20;51.60;;;;;;222115;1263;22526;-44
2023/01/26 17:09:05;;;;;;;32.50;17.80;;;23.10;51.10;;;;;;222137;1269;22826;-45
2023/01/26 17:14:11;;;;;;;32.80;19.60;;;23.10;51.00;;;;;;222310;1263;22530;-53
2023/01/26 17:19:15;;;;;;;32.40;20.30;;;23.00;51.10;;;;;;222213;1260;23913;-42
2023/01/26 17:24:19;;;;;;;34.10;19.60;;;22.90;51.00;;;;;;221916;1263;22541;-46
2023/01/26 17:29:23;;;;;;;28.40;20.00;;;22.90;50.40;;;;;;221831;1269;22627;-46
2023/01/26 17:34:28;;;;;;;27.50;20.70;;;22.70;50.70;;;;;;221744;1270;22547;-46
2023/01/26 17:39:32;;;;;;;26.90;20.30;;;22.70;50.50;;;;;;221580;1264;24210;-51
2023/01/26 17:44:38;;;;;;;24.80;20.20;;;22.70;50.60;;;;;;221870;1259;22615;-43
2023/01/26 17:49:43;;;;;;;32.40;22.60;;;22.90;51.30;;;;;;221494;1265;22639;-49
2023/01/26 17:54:47;;;;;;;38.90;23.50;;;22.80;51.60;;;;;;222097;1269;22535;-51
2023/01/26 17:59:53;;;;;;;41.70;24.00;;;22.80;51.90;;;;;;221842;1266;23277;-50
2023/01/26 18:04:58;;;;;;;37.40;25.00;;;22.60;52.20;;;;;;221846;1259;25087;-51
2023/01/26 18:10:04;;;;;;;37.60;25.40;;;22.50;52.90;;;;;;221855;1264;22545;-49
2023/01/26 18:15:09;;;;;;;44.60;32.60;;;22.60;53.20;;;;;;221827;1270;22997;-50
2023/01/26 18:20:16;;;;;;;43.40;32.50;;;22.50;53.60;;;;;;222003;1271;25626;-51
2023/01/26 18:25:22;;;;;;;41.60;31.40;;;22.50;53.40;;;;;;221873;1271;23988;-51
2023/01/26 18:30:29;;;;;;;40.10;31.50;;;22.40;53.40;;;;;;221915;1265;23028;-53
2023/01/26 18:35:35;;;;;;;38.00;28.80;;;22.40;53.20;;;;;;222229;1267;24186;-50
2023/01/26 18:40:40;;;;;;;35.30;29.50;;;22.40;53.30;;;;;;222019;1267;22537;-48
2023/01/26 18:45:45;;;;;;;34.10;29.00;;;22.40;53.40;;;;;;222178;1253;22556;-45
2023/01/26 18:50:52;;;;;;;35.00;28.50;;;22.40;53.30;;;;;;222232;1266;25249;-46
2023/01/26 18:56:06;;;;;;;30.20;26.90;;;22.40;53.30;;;;;;222185;1264;22533;-47
2023/01/26 19:01:15;;;;;;;33.80;26.90;;;22.40;53.00;;;;;;221947;1262;22525;-49
2023/01/26 19:06:22;;;;;;;31.80;26.10;;;22.40;53.50;;;;;;222249;1254;22611;-47
2023/01/26 19:11:31;;;;;;;37.20;25.80;;;22.40;53.60;;;;;;222303;1269;25422;-48
2023/01/26 19:16:39;;;;;;;33.70;27.20;;;22.20;53.90;;;;;;222288;1263;22594;-44
2023/01/26 19:21:45;;;;;;;31.80;26.70;;;22.30;55.20;;;;;;222075;1250;24212;-48
2023/01/26 19:26:51;;;;;;;37.40;27.70;;;22.10;55.60;;;;;;222233;1267;25262;-43
2023/01/26 19:31:57;;;;;;;35.30;27.30;;;21.90;55.60;;;;;;222083;1267;24303;-45
2023/01/26 19:37:03;;;;;;;33.40;27.20;;;21.90;56.00;;;;;;222097;1268;22945;-45
2023/01/26 19:42:09;;;;;;;34.40;26.80;;;21.80;56.30;;;;;;222243;1264;23235;-44
2023/01/26 19:47:14;;;;;;;35.30;27.80;;;21.80;57.00;;;;;;222187;1264;22534;-45
2023/01/26 19:52:24;;;;;;;36.70;26.30;;;21.90;58.20;;;;;;222290;1248;24318;-46
2023/01/26 19:57:31;;;;;;;38.20;26.10;;;21.90;59.50;;;;;;222285;1257;23156;-45
2023/01/26 20:02:37;;;;;;;34.00;26.60;;;21.80;60.00;;;;;;222475;1261;25488;-48
2023/01/26 20:07:44;;;;;;;38.40;26.70;;;21.90;59.10;;;;;;222029;1269;22573;-49
2023/01/26 20:12:50;;;;;;;37.00;26.30;;;21.80;59.90;;;;;;222307;1267;25249;-44
2023/01/26 20:17:56;;;;;;;41.90;27.10;;;21.60;60.40;;;;;;222352;1265;24247;-43
2023/01/26 20:23:02;;;;;;;33.80;25.30;;;21.60;60.10;;;;;;222256;1267;25434;-47
2023/01/26 20:28:09;;;;;;;33.90;25.60;;;21.50;60.50;;;;;;222417;1256;22552;-45
2023/01/26 20:33:13;;;;;;;35.40;25.50;;;21.40;60.60;;;;;;222201;1267;22547;-49
2023/01/26 20:38:18;;;;;;;41.00;25.00;;;21.40;61.00;;;;;;222019;1248;22706;-46
2023/01/26 20:43:24;;;;;;;37.70;24.60;;;21.70;60.90;;;;;;221920;1264;26521;-44
2023/01/26 20:48:33;;;;;;;38.00;23.20;;;22.10;60.10;;;;;;222124;1247;22553;-48
2023/01/26 20:53:40;;;;;;;39.40;23.30;;;22.50;59.20;;;;;;222024;1257;25313;-46
2023/01/26 20:58:45;;;;;;;33.90;24.40;;;22.50;60.00;;;;;;221973;1248;24040;-46
2023/01/26 21:03:51;;;;;;;39.90;23.90;;;22.70;61.40;;;;;;222371;1267;24217;-48
2023/01/26 21:08:58;;;;;;;35.80;24.00;;;22.90;62.80;;;;;;222219;1254;25387;-46
2023/01/26 21:14:04;;;;;;;32.40;24.90;;;23.00;61.40;;;;;;221954;1263;22645;-46
2023/01/26 21:19:08;;;;;;;35.50;22.80;;;23.10;62.50;;;;;;222204;1270;22831;-46
2023/01/26 21:24:13;;;;;;;31.80;23.20;;;23.20;62.30;;;;;;222313;1269;23880;-46
2023/01/26 21:29:18;;;;;;;31.60;22.20;;;23.20;62.00;;;;;;222277;1267;22639;-47
2023/01/26 21:34:22;;;;;;;29.20;22.60;;;23.20;62.20;;;;;;222335;1255;22567;-46
2023/01/26 21:39:27;;;;;;;36.00;22.60;;;23.30;61.90;;;;;;222226;1249;24216;-45
2023/01/26 21:45:51;;;;;;;33.90;22.70;;;23.30;62.20;;;;;;222317;1267;22544;-45
2023/01/26 21:49:58;;;;;;;32.90;21.20;;;23.30;63.20;;;;;;222212;1269;23909;-44
2023/01/26 21:55:03;;;;;;;30.80;21.60;;;23.10;62.60;;;;;;222239;1264;22541;-45
2023/01/26 22:00:08;;;;;;;26.20;21.30;;;22.90;63.10;;;;;;222331;1248;25540;-48
2023/01/26 22:05:12;;;;;;;25.80;21.40;;;22.70;63.50;;;;;;222105;1253;24237;-45
2023/01/26 22:10:16;;;;;;;27.60;21.60;;;22.50;64.20;;;;;;222106;1251;22527;-45
2023/01/26 22:15:21;;;;;;;26.50;21.20;;;22.50;63.90;;;;;;222665;1263;24221;-44
2023/01/26 22:20:25;;;;;;;30.80;20.80;;;22.40;64.20;;;;;;222338;1264;24192;-46
2023/01/26 22:25:29;;;;;;;29.40;21.60;;;22.30;64.70;;;;;;222271;1267;22556;-47
2023/01/26 22:30:33;;;;;;;29.90;22.10;;;22.20;65.10;;;;;;222201;1247;22591;-46
2023/01/26 22:35:37;;;;;;;30.10;21.90;;;22.20;65.60;;;;;;222253;1263;23306;-47
2023/01/26 22:40:41;;;;;;;34.00;21.10;;;22.10;66.20;;;;;;222395;1264;24201;-46
2023/01/26 22:45:45;;;;;;;32.20;23.30;;;22.00;66.30;;;;;;222846;1256;22570;-44
2023/01/26 22:50:49;;;;;;;33.30;23.70;;;22.00;67.50;;;;;;222377;1269;23063;-44
2023/01/26 22:55:53;;;;;;;27.50;21.60;;;21.90;67.30;;;;;;222205;1267;22622;-45
2023/01/26 23:01:07;;;;;;;28.90;22.00;;;21.80;68.40;;;;;;222708;1264;22602;-46
2023/01/26 23:06:13;;;;;;;31.90;22.20;;;21.80;68.10;;;;;;222075;1264;22528;-45
2023/01/26 23:11:19;;;;;;;29.20;21.80;;;21.70;68.30;;;;;;222118;1269;25304;-46
2023/01/26 23:16:24;;;;;;;27.30;21.90;;;21.60;69.00;;;;;;222265;1266;26479;-44
2023/01/26 23:21:28;;;;;;;25.10;21.50;;;21.50;69.20;;;;;;222163;1269;23403;-49
2023/01/26 23:26:32;;;;;;;26.90;22.30;;;21.40;69.10;;;;;;222337;1257;24209;-46
2023/01/26 23:31:36;;;;;;;28.90;21.60;;;21.40;69.60;;;;;;222082;1270;23480;-47
2023/01/26 23:36:40;;;;;;;24.60;20.30;;;21.40;68.70;;;;;;222296;1249;22556;-43
2023/01/26 23:41:44;;;;;;;26.30;21.80;;;21.40;69.00;;;;;;222341;1263;22547;-44
2023/01/26 23:46:49;;;;;;;26.40;21.30;;;21.30;69.40;;;;;;222091;1256;22656;-44
2023/01/26 23:51:53;;;;;;;28.00;21.20;;;21.40;70.10;;;;;;222287;1264;22631;-44
2023/01/26 23:56:57;;;;;;;28.20;20.20;;;21.60;71.10;;;;;;222198;1263;23396;-46
